Time;durP1;ratioP1;P1;durP2;ratioP2;P2;SDS_P1;SDS_P2;PMS_P1;PMS_P2;Temp;Humidity;BMP_temperature;BMP_pressure;BME280_temperature;BME280_humidity;BME280_pressure;Samples;Min_cycle;Max_cycle;Signal;HPM_P1;HPM_P2
2023/05/21 00:01:47;;;;;;;10.65;7.55;;;;;;;;;;10327989;28;20506;-50
2023/05/21 00:06:47;;;;;;;9.10;6.45;;;;;;;;;;10339075;28;20073;-49
2023/05/21 00:11:47;;;;;;;8.63;6.60;;;;;;;;;;10329175;28;20505;-49
2023/05/21 00:16:48;;;;;;;7.60;6.67;;;;;;;;;;10335591;28;20452;-57
2023/05/21 00:21:49;;;;;;;10.32;6.65;;;;;;;;;;10329504;28;20920;-57
2023/05/21 00:26:49;;;;;;;8.98;6.72;;;;;;;;;;10334468;28;20026;-57
2023/05/21 00:31:51;;;;;;;9.33;6.97;;;;;;;;;;10326862;28;20031;-57
2023/05/21 00:36:52;;;;;;;7.90;7.00;;;;;;;;;;10328261;28;20510;-57
2023/05/21 00:41:52;;;;;;;9.20;6.85;;;;;;;;;;10316761;28;20041;-57
2023/05/21 00:46:53;;;;;;;7.15;6.45;;;;;;;;;;10327268;28;20047;-57
2023/05/21 00:51:53;;;;;;;9.32;6.90;;;;;;;;;;10327884;28;20108;-57
2023/05/21 00:56:54;;;;;;;9.07;7.67;;;;;;;;;;10327594;28;20031;-57
2023/05/21 01:01:55;;;;;;;8.85;7.00;;;;;;;;;;10324456;28;20480;-58
2023/05/21 01:06:57;;;;;;;8.02;6.80;;;;;;;;;;10324710;28;20046;-56
2023/05/21 01:11:59;;;;;;;8.80;7.35;;;;;;;;;;10312447;28;20426;-56
2023/05/21 01:17:01;;;;;;;8.15;6.68;;;;;;;;;;10339960;28;20019;-55
2023/05/21 01:22:05;;;;;;;7.65;6.85;;;;;;;;;;10336784;28;20030;-56
2023/05/21 01:27:06;;;;;;;7.47;6.78;;;;;;;;;;10323605;28;20035;-57
2023/05/21 01:32:32;;;;;;;8.73;7.10;;;;;;;;;;10323279;28;20481;-56
2023/05/21 01:37:36;;;;;;;9.30;7.15;;;;;;;;;;10324721;28;20116;-57
2023/05/21 01:42:38;;;;;;;8.02;7.22;;;;;;;;;;10322870;28;20452;-57
2023/05/21 01:47:39;;;;;;;7.82;7.03;;;;;;;;;;10350751;28;20130;-57
2023/05/21 01:52:47;;;;;;;10.68;7.07;;;;;;;;;;10322179;28;20018;-56
2023/05/21 01:57:48;;;;;;;7.63;6.85;;;;;;;;;;10326661;28;20025;-56
2023/05/21 02:02:49;;;;;;;8.97;6.70;;;;;;;;;;10324871;28;20026;-57
2023/05/21 02:07:50;;;;;;;7.80;6.90;;;;;;;;;;10337645;28;20444;-53
2023/05/21 02:12:51;;;;;;;9.95;7.40;;;;;;;;;;10338647;28;20478;-57
2023/05/21 02:17:51;;;;;;;11.27;6.50;;;;;;;;;;10333419;28;20026;-57
2023/05/21 02:22:52;;;;;;;10.57;6.93;;;;;;;;;;10342308;28;20026;-57
2023/05/21 02:27:55;;;;;;;9.43;8.20;;;;;;;;;;10332258;28;20081;-57
2023/05/21 02:32:57;;;;;;;7.75;6.95;;;;;;;;;;10331303;28;20539;-56
2023/05/21 02:37:58;;;;;;;9.13;7.43;;;;;;;;;;10331337;28;20367;-56
2023/05/21 02:42:58;;;;;;;8.52;7.68;;;;;;;;;;10331443;28;20046;-57
2023/05/21 02:47:58;;;;;;;9.67;7.83;;;;;;;;;;10342304;28;20022;-57
2023/05/21 02:52:59;;;;;;;9.30;7.60;;;;;;;;;;10342078;28;21134;-60
2023/05/21 02:57:59;;;;;;;8.97;6.90;;;;;;;;;;10329952;28;20033;-61
2023/05/21 03:03:00;;;;;;;9.77;7.53;;;;;;;;;;10317092;28;20734;-61
2023/05/21 03:08:00;;;;;;;7.93;7.17;;;;;;;;;;10341146;28;20975;-61
2023/05/21 03:13:03;;;;;;;10.27;7.23;;;;;;;;;;10328458;28;20456;-62
2023/05/21 03:18:04;;;;;;;7.57;6.78;;;;;;;;;;10328279;28;21254;-61
2023/05/21 03:23:04;;;;;;;8.57;7.65;;;;;;;;;;10328153;28;20034;-61
2023/05/21 03:28:05;;;;;;;19.90;7.73;;;;;;;;;;10327953;28;20022;-62
2023/05/21 03:33:06;;;;;;;8.32;7.43;;;;;;;;;;10327262;28;20452;-61
2023/05/21 03:38:06;;;;;;;8.43;7.57;;;;;;;;;;10327819;28;20026;-61
2023/05/21 03:43:07;;;;;;;7.82;7.03;;;;;;;;;;10326927;28;20476;-59
2023/05/21 03:48:07;;;;;;;9.30;7.67;;;;;;;;;;10327535;28;20021;-61
2023/05/21 03:53:09;;;;;;;8.73;7.53;;;;;;;;;;10327050;28;20514;-62
2023/05/21 03:58:10;;;;;;;8.10;7.30;;;;;;;;;;10338118;28;20470;-61
2023/05/21 04:03:10;;;;;;;9.33;7.80;;;;;;;;;;10339867;28;20030;-61
2023/05/21 04:08:11;;;;;;;8.47;7.20;;;;;;;;;;10326494;28;21060;-61
2023/05/21 04:13:11;;;;;;;9.00;8.07;;;;;;;;;;10326802;28;20456;-61
2023/05/21 04:18:12;;;;;;;8.70;7.85;;;;;;;;;;10325584;28;20080;-62
2023/05/21 04:23:13;;;;;;;8.45;7.65;;;;;;;;;;10326731;28;20022;-62
2023/05/21 04:28:18;;;;;;;8.70;7.78;;;;;;;;;;10324426;28;20022;-62
2023/05/21 04:33:19;;;;;;;8.77;7.32;;;;;;;;;;10325461;28;20058;-61
2023/05/21 04:38:20;;;;;;;8.07;7.07;;;;;;;;;;10337606;28;20034;-61
2023/05/21 04:43:26;;;;;;;9.60;7.20;;;;;;;;;;10339553;28;20042;-61
2023/05/21 04:48:27;;;;;;;9.63;7.65;;;;;;;;;;10329665;28;20475;-61
2023/05/21 04:53:28;;;;;;;10.32;7.97;;;;;;;;;;10325557;28;20022;-61
2023/05/21 04:58:28;;;;;;;14.43;7.85;;;;;;;;;;10325555;28;20022;-61
2023/05/21 05:03:29;;;;;;;9.88;7.93;;;;;;;;;;10325098;28;20022;-61
2023/05/21 05:08:29;;;;;;;8.88;7.82;;;;;;;;;;10324805;28;20433;-62
2023/05/21 05:13:30;;;;;;;9.65;8.63;;;;;;;;;;10335935;28;20022;-62
2023/05/21 05:18:32;;;;;;;8.35;7.53;;;;;;;;;;10323812;28;20446;-61
2023/05/21 05:23:32;;;;;;;7.97;7.18;;;;;;;;;;10323867;28;20069;-60
2023/05/21 05:28:32;;;;;;;9.40;7.77;;;;;;;;;;10324097;28;20026;-59
2023/05/21 05:33:33;;;;;;;9.77;7.53;;;;;;;;;;10326128;28;20459;-61
2023/05/21 05:38:34;;;;;;;9.77;7.40;;;;;;;;;;10325055;28;20448;-59
2023/05/21 05:43:35;;;;;;;10.32;8.02;;;;;;;;;;10323401;28;20041;-62
2023/05/21 05:48:35;;;;;;;9.65;7.80;;;;;;;;;;10323653;28;20533;-62
2023/05/21 05:53:36;;;;;;;9.47;7.10;;;;;;;;;;10329863;28;20030;-62
2023/05/21 05:58:37;;;;;;;8.35;7.55;;;;;;;;;;10329086;28;20448;-61
2023/05/21 06:03:37;;;;;;;8.70;7.22;;;;;;;;;;10335824;28;20065;-61
2023/05/21 06:08:39;;;;;;;9.03;7.67;;;;;;;;;;10322624;28;20030;-61
2023/05/21 06:13:39;;;;;;;8.50;7.40;;;;;;;;;;10323048;28;20460;-62
2023/05/21 06:18:40;;;;;;;8.43;7.20;;;;;;;;;;10334985;28;20033;-61
2023/05/21 06:23:40;;;;;;;9.47;7.37;;;;;;;;;;10322729;28;20507;-61
2023/05/21 06:28:41;;;;;;;13.23;7.83;;;;;;;;;;10322247;28;20479;-61
2023/05/21 06:33:41;;;;;;;10.02;7.85;;;;;;;;;;10322324;28;20471;-63
2023/05/21 06:38:41;;;;;;;10.02;8.13;;;;;;;;;;10323021;28;20492;-63
2023/05/21 06:43:42;;;;;;;10.93;8.13;;;;;;;;;;10317948;28;20042;-62
2023/05/21 06:48:43;;;;;;;8.60;7.77;;;;;;;;;;10314070;28;20464;-63
2023/05/21 06:53:43;;;;;;;11.43;8.40;;;;;;;;;;10320938;28;20488;-63
2023/05/21 06:58:44;;;;;;;13.53;8.60;;;;;;;;;;10330376;28;20018;-62
2023/05/21 07:03:44;;;;;;;9.30;7.55;;;;;;;;;;10329984;28;20491;-62
2023/05/21 07:08:46;;;;;;;9.90;8.70;;;;;;;;;;10329920;28;20481;-61
2023/05/21 07:13:47;;;;;;;9.85;8.85;;;;;;;;;;10328717;28;20027;-61
2023/05/21 07:18:47;;;;;;;11.68;8.23;;;;;;;;;;10329180;28;20026;-62
2023/05/21 07:23:48;;;;;;;10.90;9.00;;;;;;;;;;10328642;28;20034;-61
2023/05/21 07:28:48;;;;;;;11.38;8.40;;;;;;;;;;10328768;28;20511;-58
2023/05/21 07:33:49;;;;;;;12.65;8.52;;;;;;;;;;10328762;28;20022;-58
2023/05/21 07:38:50;;;;;;;12.88;9.40;;;;;;;;;;10329210;28;20026;-60
2023/05/21 07:43:50;;;;;;;10.85;8.25;;;;;;;;;;10328836;28;20065;-57
2023/05/21 07:48:51;;;;;;;12.65;8.80;;;;;;;;;;10322454;28;20026;-59
2023/05/21 07:53:51;;;;;;;13.38;8.55;;;;;;;;;;10327583;28;20026;-58
2023/05/21 07:58:52;;;;;;;18.98;8.57;;;;;;;;;;10315341;28;20026;-60
2023/05/21 08:03:53;;;;;;;8.57;7.65;;;;;;;;;;10324178;28;20393;-59
2023/05/21 08:08:53;;;;;;;10.18;7.57;;;;;;;;;;10314910;28;20030;-59
2023/05/21 08:13:55;;;;;;;9.57;7.53;;;;;;;;;;10324459;28;20470;-58
2023/05/21 08:18:55;;;;;;;9.60;7.18;;;;;;;;;;10336061;28;20499;-60
2023/05/21 08:23:56;;;;;;;10.18;7.25;;;;;;;;;;10326896;28;20129;-58
2023/05/21 08:28:56;;;;;;;12.70;7.30;;;;;;;;;;10326691;28;20363;-57
2023/05/21 08:33:57;;;;;;;10.35;7.40;;;;;;;;;;10327606;28;20033;-58
2023/05/21 08:38:57;;;;;;;13.20;7.45;;;;;;;;;;10329105;28;20034;-59
2023/05/21 08:44:00;;;;;;;15.40;6.95;;;;;;;;;;10329499;28;20612;-59
2023/05/21 08:49:01;;;;;;;12.18;7.65;;;;;;;;;;10323213;28;20018;-60
2023/05/21 08:54:03;;;;;;;17.70;7.35;;;;;;;;;;10325850;28;20030;-59
2023/05/21 08:59:04;;;;;;;10.43;7.10;;;;;;;;;;10325529;28;20022;-60
2023/05/21 09:04:04;;;;;;;8.10;6.65;;;;;;;;;;10324285;28;20030;-60
2023/05/21 09:09:32;;;;;;;10.15;6.65;;;;;;;;;;10325052;28;20042;-60
2023/05/21 09:14:34;;;;;;;16.17;7.05;;;;;;;;;;10329350;28;20026;-59
2023/05/21 09:19:34;;;;;;;13.07;6.35;;;;;;;;;;10338573;28;20018;-59
2023/05/21 09:24:35;;;;;;;15.38;6.20;;;;;;;;;;10331452;28;20567;-59
2023/05/21 09:29:35;;;;;;;12.30;5.90;;;;;;;;;;10327825;28;20209;-60
2023/05/21 09:34:36;;;;;;;9.43;6.83;;;;;;;;;;10324863;28;20511;-60
2023/05/21 09:39:39;;;;;;;13.05;6.45;;;;;;;;;;10323788;28;20926;-60
2023/05/21 09:44:42;;;;;;;10.68;5.90;;;;;;;;;;10322847;28;20609;-60
2023/05/21 09:49:43;;;;;;;11.27;6.10;;;;;;;;;;10321958;28;20046;-60
2023/05/21 09:54:44;;;;;;;7.63;5.53;;;;;;;;;;10325608;28;20474;-60
2023/05/21 09:59:44;;;;;;;9.82;5.90;;;;;;;;;;10326913;28;20101;-63
2023/05/21 10:04:48;;;;;;;10.30;6.37;;;;;;;;;;10336879;28;20096;-61
2023/05/21 10:09:49;;;;;;;8.88;5.72;;;;;;;;;;10323184;28;20471;-61
2023/05/21 10:15:00;;;;;;;7.93;5.97;;;;;;;;;;10322394;28;20030;-60
2023/05/21 10:20:01;;;;;;;8.25;6.03;;;;;;;;;;10323126;28;20030;-61
2023/05/21 10:25:02;;;;;;;14.30;6.05;;;;;;;;;;10323387;28;20026;-61
2023/05/21 10:30:04;;;;;;;9.32;6.13;;;;;;;;;;10332411;28;20430;-62
2023/05/21 10:35:06;;;;;;;11.73;5.90;;;;;;;;;;10329562;28;20043;-61
2023/05/21 10:40:07;;;;;;;7.70;5.97;;;;;;;;;;10329251;28;20034;-61
2023/05/21 10:45:31;;;;;;;12.55;6.28;;;;;;;;;;10328263;28;20057;-61
2023/05/21 10:50:50;;;;;;;10.77;5.85;;;;;;;;;;10352340;28;20025;-61
2023/05/21 10:56:16;;;;;;;7.32;6.00;;;;;;;;;;10351146;28;20084;-61
2023/05/21 11:01:18;;;;;;;10.23;6.50;;;;;;;;;;10330063;28;20042;-60
2023/05/21 11:06:25;;;;;;;9.10;6.13;;;;;;;;;;10327246;28;20117;-61
2023/05/21 11:11:47;;;;;;;11.63;6.57;;;;;;;;;;10323944;28;20110;-60
2023/05/21 11:16:47;;;;;;;9.15;5.90;;;;;;;;;;10349639;28;20022;-61
2023/05/21 11:21:51;;;;;;;7.97;5.97;;;;;;;;;;10340948;28;20084;-61
2023/05/21 11:26:51;;;;;;;7.63;5.75;;;;;;;;;;10327209;28;20825;-60
2023/05/21 11:32:01;;;;;;;9.93;5.83;;;;;;;;;;10323463;28;20022;-60
2023/05/21 11:37:19;;;;;;;8.63;5.72;;;;;;;;;;10336988;28;20474;-61
2023/05/21 11:42:38;;;;;;;12.50;6.82;;;;;;;;;;10338703;28;20034;-60
2023/05/21 11:47:39;;;;;;;10.88;6.30;;;;;;;;;;10317667;28;20046;-60
2023/05/21 11:52:40;;;;;;;10.15;6.20;;;;;;;;;;10321731;28;20038;-60
2023/05/21 11:57:43;;;;;;;9.38;5.95;;;;;;;;;;10326660;28;20023;-60
2023/05/21 12:02:50;;;;;;;8.77;6.28;;;;;;;;;;10320233;28;20038;-60
2023/05/21 12:07:50;;;;;;;12.77;5.97;;;;;;;;;;10316619;28;20096;-61
2023/05/21 12:12:51;;;;;;;13.95;6.07;;;;;;;;;;10326423;28;20056;-60
2023/05/21 12:17:51;;;;;;;7.80;5.82;;;;;;;;;;10325783;28;20339;-60
2023/05/21 12:22:52;;;;;;;10.10;5.85;;;;;;;;;;10326790;28;20053;-61
2023/05/21 12:27:57;;;;;;;10.20;5.83;;;;;;;;;;10331062;28;20039;-60
2023/05/21 12:32:58;;;;;;;11.80;5.97;;;;;;;;;;10331092;28;20510;-60
2023/05/21 12:38:02;;;;;;;9.90;5.75;;;;;;;;;;10336096;28;20466;-61
2023/05/21 12:43:03;;;;;;;9.68;5.85;;;;;;;;;;10341527;28;20045;-61
2023/05/21 12:48:04;;;;;;;10.80;5.88;;;;;;;;;;10336232;28;20029;-61
2023/05/21 12:53:08;;;;;;;8.68;5.55;;;;;;;;;;10335365;28;20050;-61
2023/05/21 12:58:12;;;;;;;7.15;5.68;;;;;;;;;;10333046;28;20027;-60
2023/05/21 13:03:13;;;;;;;8.43;5.55;;;;;;;;;;10325172;28;20581;-61
2023/05/21 13:08:15;;;;;;;8.88;5.68;;;;;;;;;;10325021;28;20242;-60
2023/05/21 13:13:16;;;;;;;6.88;5.50;;;;;;;;;;10324806;28;20601;-61
2023/05/21 13:18:16;;;;;;;6.63;5.20;;;;;;;;;;10330418;28;20170;-60
2023/05/21 13:23:17;;;;;;;7.88;5.63;;;;;;;;;;10333127;28;20037;-61
2023/05/21 13:28:17;;;;;;;6.97;5.30;;;;;;;;;;10350817;28;20030;-61
2023/05/21 13:33:17;;;;;;;9.40;5.80;;;;;;;;;;10349531;28;20460;-61
2023/05/21 13:38:18;;;;;;;7.77;6.17;;;;;;;;;;10334063;28;20025;-61
2023/05/21 13:43:18;;;;;;;13.57;5.70;;;;;;;;;;10322698;28;20488;-60
2023/05/21 13:48:19;;;;;;;11.15;5.72;;;;;;;;;;10323961;28;20049;-60
2023/05/21 13:53:20;;;;;;;7.55;5.47;;;;;;;;;;10320311;28;20042;-60
2023/05/21 13:58:21;;;;;;;11.68;5.82;;;;;;;;;;10329972;28;20034;-60
2023/05/21 14:03:21;;;;;;;12.03;5.67;;;;;;;;;;10331513;28;20034;-60
2023/05/21 14:08:22;;;;;;;7.80;5.83;;;;;;;;;;10327019;28;20452;-60
2023/05/21 14:13:22;;;;;;;6.68;5.03;;;;;;;;;;10330006;28;20563;-60
2023/05/21 14:18:23;;;;;;;6.07;5.27;;;;;;;;;;10355588;28;20393;-61
2023/05/21 14:23:23;;;;;;;10.37;6.07;;;;;;;;;;10327796;28;20472;-60
2023/05/21 14:28:24;;;;;;;11.10;6.07;;;;;;;;;;10329033;28;20430;-60
2023/05/21 14:33:24;;;;;;;11.50;5.90;;;;;;;;;;10328537;28;20619;-60
2023/05/21 14:38:25;;;;;;;9.32;5.60;;;;;;;;;;10320066;28;20042;-60
2023/05/21 14:43:25;;;;;;;9.35;5.93;;;;;;;;;;10333051;28;20060;-60
2023/05/21 14:48:26;;;;;;;9.82;5.82;;;;;;;;;;10324077;28;20041;-59
2023/05/21 14:53:26;;;;;;;11.83;4.93;;;;;;;;;;10324675;28;20440;-59
2023/05/21 14:58:27;;;;;;;10.93;5.83;;;;;;;;;;10333278;28;20463;-59
2023/05/21 15:03:27;;;;;;;11.33;5.70;;;;;;;;;;10328831;28;20500;-59
2023/05/21 15:08:27;;;;;;;12.53;5.77;;;;;;;;;;10328952;28;20475;-58
2023/05/21 15:13:28;;;;;;;12.17;5.83;;;;;;;;;;10328584;28;20026;-58
2023/05/21 15:18:28;;;;;;;8.37;5.97;;;;;;;;;;10341971;28;20448;-58
2023/05/21 15:23:29;;;;;;;7.87;5.60;;;;;;;;;;10327028;28;20994;-59
2023/05/21 15:28:29;;;;;;;10.20;5.33;;;;;;;;;;10327782;28;20460;-58
2023/05/21 15:33:29;;;;;;;7.23;5.93;;;;;;;;;;10329184;28;20452;-59
2023/05/21 15:38:30;;;;;;;8.40;5.33;;;;;;;;;;10328232;28;20467;-59
2023/05/21 15:43:30;;;;;;;8.93;5.68;;;;;;;;;;10327240;28;20607;-59
2023/05/21 15:48:31;;;;;;;5.97;4.93;;;;;;;;;;10327541;28;20030;-58
2023/05/21 15:53:31;;;;;;;6.07;5.47;;;;;;;;;;10333200;28;20458;-58
2023/05/21 15:58:31;;;;;;;7.87;5.67;;;;;;;;;;10321007;28;20086;-58
2023/05/21 16:03:32;;;;;;;7.33;5.57;;;;;;;;;;10326762;28;20475;-58
2023/05/21 16:08:33;;;;;;;6.57;5.17;;;;;;;;;;10314688;28;20530;-59
2023/05/21 16:13:33;;;;;;;7.40;5.47;;;;;;;;;;10326340;28;20463;-59
2023/05/21 16:18:34;;;;;;;10.43;6.07;;;;;;;;;;10327116;28;20375;-58
2023/05/21 16:23:37;;;;;;;5.78;5.10;;;;;;;;;;10325979;28;20479;-58
2023/05/21 16:28:37;;;;;;;9.23;5.38;;;;;;;;;;10324811;28;20106;-58
2023/05/21 16:33:38;;;;;;;5.90;5.18;;;;;;;;;;10325425;28;20030;-59
2023/05/21 16:38:38;;;;;;;6.07;5.47;;;;;;;;;;10322536;28;20122;-58
2023/05/21 16:43:39;;;;;;;5.80;5.17;;;;;;;;;;10333129;28;20254;-58
2023/05/21 16:48:40;;;;;;;5.87;5.17;;;;;;;;;;10329401;28;20472;-58
2023/05/21 16:53:41;;;;;;;5.90;5.22;;;;;;;;;;10325738;28;20514;-58
2023/05/21 16:58:41;;;;;;;7.27;5.50;;;;;;;;;;10329666;28;20093;-59
2023/05/21 17:03:41;;;;;;;9.43;5.80;;;;;;;;;;10322965;28;20871;-59
2023/05/21 17:08:42;;;;;;;8.05;5.03;;;;;;;;;;10322267;28;20140;-59
2023/05/21 17:13:46;;;;;;;8.88;5.30;;;;;;;;;;10323857;28;20041;-59
2023/05/21 17:18:47;;;;;;;8.85;5.38;;;;;;;;;;10323970;28;20038;-61
2023/05/21 17:23:47;;;;;;;5.87;4.83;;;;;;;;;;10331710;28;20493;-59
2023/05/21 17:28:48;;;;;;;7.00;5.17;;;;;;;;;;10322587;28;20507;-59
2023/05/21 17:33:48;;;;;;;8.17;5.70;;;;;;;;;;10322042;28;20539;-59
2023/05/21 17:38:49;;;;;;;7.57;5.43;;;;;;;;;;10324489;28;20456;-58
2023/05/21 17:43:50;;;;;;;9.55;6.13;;;;;;;;;;10324680;28;20539;-58
2023/05/21 17:48:50;;;;;;;9.07;5.68;;;;;;;;;;10323094;28;20211;-59
2023/05/21 17:53:51;;;;;;;9.98;5.97;;;;;;;;;;10325569;28;20022;-58
2023/05/21 17:58:51;;;;;;;9.10;5.73;;;;;;;;;;10314710;28;20050;-58
2023/05/21 18:03:52;;;;;;;9.38;5.25;;;;;;;;;;10308137;28;20487;-59
2023/05/21 18:08:52;;;;;;;6.53;5.70;;;;;;;;;;10312069;28;20513;-59
2023/05/21 18:13:53;;;;;;;10.57;6.23;;;;;;;;;;10328464;28;20471;-58
2023/05/21 18:18:53;;;;;;;9.32;5.80;;;;;;;;;;10325832;28;20466;-58
2023/05/21 18:23:54;;;;;;;8.27;6.20;;;;;;;;;;10317593;28;20030;-59
2023/05/21 18:28:58;;;;;;;17.15;6.82;;;;;;;;;;10319781;28;20463;-58
2023/05/21 18:33:58;;;;;;;11.50;7.05;;;;;;;;;;10317905;28;20072;-58
2023/05/21 18:38:58;;;;;;;14.70;7.53;;;;;;;;;;10321989;28;20034;-58
2023/05/21 18:44:02;;;;;;;12.93;7.10;;;;;;;;;;10323127;28;20906;-58
2023/05/21 18:49:04;;;;;;;12.10;6.80;;;;;;;;;;10332632;28;20452;-65
2023/05/21 18:54:04;;;;;;;13.95;6.22;;;;;;;;;;10329372;28;20022;-59
2023/05/21 18:59:05;;;;;;;19.55;6.88;;;;;;;;;;10330565;28;20029;-59
2023/05/21 19:04:05;;;;;;;12.18;6.30;;;;;;;;;;10328013;28;20496;-58
2023/05/21 19:09:06;;;;;;;9.23;6.55;;;;;;;;;;10330028;28;20030;-58
2023/05/21 19:14:06;;;;;;;10.43;6.53;;;;;;;;;;10323868;28;20027;-59
2023/05/21 19:19:06;;;;;;;9.90;6.30;;;;;;;;;;10336806;28;20977;-58
2023/05/21 19:24:07;;;;;;;7.22;6.20;;;;;;;;;;10322963;28;20491;-58
2023/05/21 19:29:08;;;;;;;9.45;6.35;;;;;;;;;;10295118;28;20405;-59
2023/05/21 19:34:09;;;;;;;9.15;6.65;;;;;;;;;;10306102;28;20025;-59
2023/05/21 19:39:09;;;;;;;11.93;6.43;;;;;;;;;;10304178;28;20466;-58
2023/05/21 19:44:10;;;;;;;13.20;6.75;;;;;;;;;;10305878;28;20054;-58
2023/05/21 19:49:12;;;;;;;13.37;6.53;;;;;;;;;;10300593;28;20406;-58
2023/05/21 19:54:13;;;;;;;12.15;6.07;;;;;;;;;;10298322;28;20464;-59
2023/05/21 19:59:13;;;;;;;12.38;6.43;;;;;;;;;;10300108;28;20410;-58
2023/05/21 20:04:14;;;;;;;11.13;6.80;;;;;;;;;;10302247;28;20042;-58
2023/05/21 20:09:16;;;;;;;9.05;5.68;;;;;;;;;;10297790;28;20035;-59
2023/05/21 20:14:17;;;;;;;9.18;6.60;;;;;;;;;;10297632;28;20438;-59
2023/05/21 20:19:19;;;;;;;9.02;5.95;;;;;;;;;;10316063;28;20031;-58
2023/05/21 20:24:19;;;;;;;8.50;6.70;;;;;;;;;;10305530;28;20060;-58
2023/05/21 20:29:20;;;;;;;12.63;5.93;;;;;;;;;;10334576;28;20096;-58
2023/05/21 20:34:20;;;;;;;9.15;5.82;;;;;;;;;;10322348;28;20472;-58
2023/05/21 20:39:21;;;;;;;14.57;6.78;;;;;;;;;;10325635;28;20026;-58
2023/05/21 20:44:22;;;;;;;12.27;6.93;;;;;;;;;;10325086;28;20133;-58
2023/05/21 20:49:23;;;;;;;13.80;7.05;;;;;;;;;;10324182;28;20397;-59
2023/05/21 20:54:23;;;;;;;12.80;6.88;;;;;;;;;;10322744;28;20029;-56
2023/05/21 20:59:26;;;;;;;17.60;7.80;;;;;;;;;;10333656;28;20030;-54
2023/05/21 21:04:26;;;;;;;16.58;7.07;;;;;;;;;;10332332;28;20482;-54
2023/05/21 21:09:27;;;;;;;16.13;7.10;;;;;;;;;;10319409;28;20507;-58
2023/05/21 21:14:27;;;;;;;12.07;7.10;;;;;;;;;;10332119;28;20026;-58
2023/05/21 21:19:28;;;;;;;11.27;7.43;;;;;;;;;;10328601;28;20022;-58
2023/05/21 21:24:29;;;;;;;11.77;7.57;;;;;;;;;;10319085;28;20040;-58
2023/05/21 21:29:29;;;;;;;17.75;7.75;;;;;;;;;;10333738;28;20022;-59
2023/05/21 21:34:29;;;;;;;15.60;6.87;;;;;;;;;;10331069;28;20347;-58
2023/05/21 21:39:30;;;;;;;10.20;6.83;;;;;;;;;;10319385;28;20448;-58
2023/05/21 21:44:30;;;;;;;10.30;6.47;;;;;;;;;;10323773;28;22092;-59
2023/05/21 21:49:31;;;;;;;16.93;6.90;;;;;;;;;;10322007;28;20502;-59
2023/05/21 21:54:32;;;;;;;11.87;6.93;;;;;;;;;;10318133;28;20476;-59
2023/05/21 21:59:33;;;;;;;15.98;7.43;;;;;;;;;;10329730;28;20453;-59
2023/05/21 22:04:33;;;;;;;10.95;6.90;;;;;;;;;;10334296;28;20053;-58
2023/05/21 22:09:34;;;;;;;12.60;7.07;;;;;;;;;;10322746;28;20474;-58
2023/05/21 22:14:34;;;;;;;10.90;7.07;;;;;;;;;;10322355;28;20030;-59
2023/05/21 22:19:35;;;;;;;14.20;6.80;;;;;;;;;;10321576;28;20470;-59
2023/05/21 22:24:35;;;;;;;15.30;7.05;;;;;;;;;;10329068;28;20491;-58
2023/05/21 22:29:35;;;;;;;11.80;6.47;;;;;;;;;;10329949;28;20030;-59
2023/05/21 22:34:36;;;;;;;11.00;7.10;;;;;;;;;;10322423;28;20832;-58
2023/05/21 22:39:36;;;;;;;10.03;6.60;;;;;;;;;;10326363;28;20509;-55
2023/05/21 22:44:37;;;;;;;15.45;6.95;;;;;;;;;;10330491;28;20480;-56
2023/05/21 22:49:39;;;;;;;15.00;6.43;;;;;;;;;;10345252;28;20030;-55
2023/05/21 22:54:39;;;;;;;8.15;6.35;;;;;;;;;;10340544;28;21003;-56
2023/05/21 22:59:40;;;;;;;8.20;6.67;;;;;;;;;;10329993;28;20030;-55
2023/05/21 23:04:40;;;;;;;8.05;6.20;;;;;;;;;;10329487;28;20476;-54
2023/05/21 23:09:41;;;;;;;10.20;6.15;;;;;;;;;;10330479;28;20492;-56
2023/05/21 23:14:41;;;;;;;12.38;6.30;;;;;;;;;;10343173;28;20034;-54
2023/05/21 23:19:42;;;;;;;10.10;6.40;;;;;;;;;;10315521;28;20088;-54
2023/05/21 23:24:42;;;;;;;12.70;6.57;;;;;;;;;;10328767;28;20942;-53
2023/05/21 23:29:42;;;;;;;8.63;6.43;;;;;;;;;;10329543;28;20460;-55
2023/05/21 23:34:43;;;;;;;11.07;6.53;;;;;;;;;;10327762;28;20045;-56
2023/05/21 23:39:48;;;;;;;7.82;6.47;;;;;;;;;;10349591;28;20464;-55
2023/05/21 23:44:48;;;;;;;12.07;5.60;;;;;;;;;;10344142;28;20054;-58
2023/05/21 23:49:48;;;;;;;12.73;6.10;;;;;;;;;;10332229;28;20026;-57
2023/05/21 23:54:49;;;;;;;8.43;5.97;;;;;;;;;;10349111;28;20456;-57
2023/05/21 23:59:49;;;;;;;7.67;5.50;;;;;;;;;;10327286;28;20041;-58
